sensor_id;sensor_type;location;lat;lon;timestamp;pressure;altitude;pressure_sealevel;temperature;humidity
74895;BME280;63447;49.446;8.666;2023-12-29T00:00:13;100382.50;;;8.58;100.00
74895;BME280;63447;49.446;8.666;2023-12-29T00:02:41;100367.97;;;8.57;100.00
74895;BME280;63447;49.446;8.666;2023-12-29T00:05:07;100352.19;;;8.40;100.00
74895;BME280;63447;49.446;8.666;2023-12-29T00:07:34;100366.94;;;8.44;100.00
74895;BME280;63447;49.446;8.666;2023-12-29T00:10:03;100343.88;;;8.32;100.00
74895;BME280;63447;49.446;8.666;2023-12-29T00:12:28;100378.31;;;8.29;100.00
74895;BME280;63447;49.446;8.666;2023-12-29T00:14:54;100381.56;;;8.31;100.00
74895;BME280;63447;49.446;8.666;2023-12-29T00:17:20;100378.69;;;8.36;100.00
74895;BME280;63447;49.446;8.666;2023-12-29T00:19:45;100384.53;;;8.43;100.00
74895;BME280;63447;49.446;8.666;2023-12-29T00:22:11;100370.94;;;8.38;100.00
74895;BME280;63447;49.446;8.666;2023-12-29T00:24:36;100366.38;;;8.34;100.00
74895;BME280;63447;49.446;8.666;2023-12-29T00:27:01;100353.63;;;8.38;100.00
74895;BME280;63447;49.446;8.666;2023-12-29T00:29:29;100367.38;;;8.38;100.00
74895;BME280;63447;49.446;8.666;2023-12-29T00:32:00;100369.75;;;8.31;100.00
74895;BME280;63447;49.446;8.666;2023-12-29T00:34:27;100369.13;;;8.34;100.00
74895;BME280;63447;49.446;8.666;2023-12-29T00:36:52;100349.13;;;8.42;100.00
74895;BME280;63447;49.446;8.666;2023-12-29T00:39:20;100349.75;;;8.39;100.00
74895;BME280;63447;49.446;8.666;2023-12-29T00:41:54;100352.69;;;8.42;100.00
74895;BME280;63447;49.446;8.666;2023-12-29T00:44:24;100355.44;;;8.42;100.00
74895;BME280;63447;49.446;8.666;2023-12-29T00:46:52;100341.53;;;8.47;100.00
74895;BME280;63447;49.446;8.666;2023-12-29T00:49:20;100353.72;;;8.55;100.00
74895;BME280;63447;49.446;8.666;2023-12-29T00:51:47;100344.28;;;8.47;100.00
74895;BME280;63447;49.446;8.666;2023-12-29T00:54:14;100357.09;;;8.52;100.00
74895;BME280;63447;49.446;8.666;2023-12-29T00:56:49;100348.66;;;8.48;100.00
74895;BME280;63447;49.446;8.666;2023-12-29T00:59:18;100362.91;;;8.59;100.00
74895;BME280;63447;49.446;8.666;2023-12-29T01:01:44;100352.72;;;8.60;100.00
74895;BME280;63447;49.446;8.666;2023-12-29T01:04:12;100350.78;;;8.60;100.00
74895;BME280;63447;49.446;8.666;2023-12-29T01:06:39;100342.22;;;8.62;100.00
74895;BME280;63447;49.446;8.666;2023-12-29T01:09:07;100360.06;;;8.73;100.00
74895;BME280;63447;49.446;8.666;2023-12-29T01:11:36;100351.63;;;8.69;100.00
74895;BME280;63447;49.446;8.666;2023-12-29T01:14:01;100356.50;;;8.72;100.00
74895;BME280;63447;49.446;8.666;2023-12-29T01:16:29;100357.16;;;8.78;100.00
74895;BME280;63447;49.446;8.666;2023-12-29T01:18:57;100355.06;;;8.83;100.00
74895;BME280;63447;49.446;8.666;2023-12-29T01:21:22;100363.47;;;8.87;100.00
74895;BME280;63447;49.446;8.666;2023-12-29T01:23:47;100338.53;;;8.83;100.00
74895;BME280;63447;49.446;8.666;2023-12-29T01:26:15;100347.59;;;8.84;100.00
74895;BME280;63447;49.446;8.666;2023-12-29T01:28:40;100345.84;;;8.88;100.00
74895;BME280;63447;49.446;8.666;2023-12-29T01:31:08;100353.78;;;8.90;100.00
74895;BME280;63447;49.446;8.666;2023-12-29T01:33:36;100344.22;;;8.78;100.00
74895;BME280;63447;49.446;8.666;2023-12-29T01:36:01;100359.59;;;8.88;100.00
74895;BME280;63447;49.446;8.666;2023-12-29T01:38:32;100353.78;;;8.90;100.00
74895;BME280;63447;49.446;8.666;2023-12-29T01:40:57;100358.28;;;8.85;100.00
74895;BME280;63447;49.446;8.666;2023-12-29T01:43:22;100342.75;;;8.72;100.00
74895;BME280;63447;49.446;8.666;2023-12-29T01:45:50;100343.38;;;8.69;100.00
74895;BME280;63447;49.446;8.666;2023-12-29T01:48:21;100348.41;;;8.76;100.00
74895;BME280;63447;49.446;8.666;2023-12-29T01:50:49;100336.72;;;8.62;100.00
74895;BME280;63447;49.446;8.666;2023-12-29T01:53:20;100330.41;;;8.53;100.00
74895;BME280;63447;49.446;8.666;2023-12-29T01:55:48;100334.97;;;8.66;100.00
74895;BME280;63447;49.446;8.666;2023-12-29T01:58:14;100333.16;;;8.61;100.00
74895;BME280;63447;49.446;8.666;2023-12-29T02:00:42;100333.16;;;8.53;100.00
74895;BME280;63447;49.446;8.666;2023-12-29T02:03:10;100329.59;;;8.52;100.00
74895;BME280;63447;49.446;8.666;2023-12-29T02:05:39;100310.03;;;8.54;100.00
74895;BME280;63447;49.446;8.666;2023-12-29T02:08:05;100317.44;;;8.44;100.00
74895;BME280;63447;49.446;8.666;2023-12-29T02:10:32;100318.69;;;8.38;100.00
74895;BME280;63447;49.446;8.666;2023-12-29T02:12:57;100284.16;;;8.15;100.00
74895;BME280;63447;49.446;8.666;2023-12-29T02:15:27;100309.44;;;8.26;100.00
74895;BME280;63447;49.446;8.666;2023-12-29T02:18:02;100304.09;;;8.29;100.00
74895;BME280;63447;49.446;8.666;2023-12-29T02:20:33;100304.38;;;8.19;100.00
74895;BME280;63447;49.446;8.666;2023-12-29T02:22:59;100290.78;;;8.14;100.00
74895;BME280;63447;49.446;8.666;2023-12-29T02:25:27;100294.16;;;8.11;100.00
74895;BME280;63447;49.446;8.666;2023-12-29T02:28:04;100284.91;;;7.98;100.00
74895;BME280;63447;49.446;8.666;2023-12-29T02:33:08;100285.53;;;7.95;100.00
74895;BME280;63447;49.446;8.666;2023-12-29T02:35:39;100291.53;;;7.97;100.00
74895;BME280;63447;49.446;8.666;2023-12-29T02:38:07;100278.25;;;7.91;100.00
74895;BME280;63447;49.446;8.666;2023-12-29T02:40:33;100285.16;;;7.88;100.00
74895;BME280;63447;49.446;8.666;2023-12-29T02:43:02;100301.53;;;7.93;100.00
74895;BME280;63447;49.446;8.666;2023-12-29T02:45:30;100300.72;;;7.93;100.00
74895;BME280;63447;49.446;8.666;2023-12-29T02:47:56;100288.22;;;7.87;100.00
74895;BME280;63447;49.446;8.666;2023-12-29T02:50:21;100292.09;;;7.86;100.00
74895;BME280;63447;49.446;8.666;2023-12-29T02:52:52;100312.78;;;7.83;100.00
74895;BME280;63447;49.446;8.666;2023-12-29T02:55:19;100308.09;;;7.83;100.00
74895;BME280;63447;49.446;8.666;2023-12-29T02:57:52;100300.16;;;7.82;100.00
74895;BME280;63447;49.446;8.666;2023-12-29T03:00:17;100298.88;;;7.79;100.00
74895;BME280;63447;49.446;8.666;2023-12-29T03:02:45;100302.09;;;7.81;100.00
74895;BME280;63447;49.446;8.666;2023-12-29T03:05:13;100312.78;;;7.83;100.00
74895;BME280;63447;49.446;8.666;2023-12-29T03:07:39;100313.09;;;7.81;100.00
74895;BME280;63447;49.446;8.666;2023-12-29T03:10:08;100315.03;;;7.81;100.00
74895;BME280;63447;49.446;8.666;2023-12-29T03:12:34;100309.22;;;7.82;100.00
74895;BME280;63447;49.446;8.666;2023-12-29T03:15:01;100301.44;;;7.76;100.00
74895;BME280;63447;49.446;8.666;2023-12-29T03:17:29;100298.00;;;7.70;100.00
74895;BME280;63447;49.446;8.666;2023-12-29T03:19:54;100304.44;;;7.66;100.00
74895;BME280;63447;49.446;8.666;2023-12-29T03:22:23;100296.16;;;7.57;100.00
74895;BME280;63447;49.446;8.666;2023-12-29T03:24:53;100303.56;;;7.57;100.00
74895;BME280;63447;49.446;8.666;2023-12-29T03:27:19;100313.81;;;7.65;100.00
74895;BME280;63447;49.446;8.666;2023-12-29T03:29:44;100299.38;;;7.59;100.00
74895;BME280;63447;49.446;8.666;2023-12-29T03:32:09;100309.75;;;7.62;100.00
74895;BME280;63447;49.446;8.666;2023-12-29T03:34:35;100308.44;;;7.60;100.00
74895;BME280;63447;49.446;8.666;2023-12-29T03:37:00;100293.06;;;7.50;100.00
74895;BME280;63447;49.446;8.666;2023-12-29T03:39:30;100308.94;;;7.62;100.00
74895;BME280;63447;49.446;8.666;2023-12-29T03:41:57;100290.16;;;7.55;100.00
74895;BME280;63447;49.446;8.666;2023-12-29T03:44:22;100298.75;;;7.62;100.00
74895;BME280;63447;49.446;8.666;2023-12-29T03:46:47;100298.44;;;7.64;100.00
74895;BME280;63447;49.446;8.666;2023-12-29T03:49:14;100303.63;;;7.65;100.00
74895;BME280;63447;49.446;8.666;2023-12-29T03:51:42;100300.56;;;7.67;100.00
74895;BME280;63447;49.446;8.666;2023-12-29T03:54:12;100285.16;;;7.57;100.00
74895;BME280;63447;49.446;8.666;2023-12-29T03:56:37;100283.72;;;7.60;100.00
74895;BME280;63447;49.446;8.666;2023-12-29T03:59:05;100291.84;;;7.65;100.00
74895;BME280;63447;49.446;8.666;2023-12-29T04:01:33;100281.44;;;7.53;100.00
74895;BME280;63447;49.446;8.666;2023-12-29T04:03:58;100287.78;;;7.62;100.00
74895;BME280;63447;49.446;8.666;2023-12-29T04:06:26;100294.78;;;7.68;100.00
74895;BME280;63447;49.446;8.666;2023-12-29T04:08:51;100281.47;;;7.62;100.00
74895;BME280;63447;49.446;8.666;2023-12-29T04:11:17;100269.16;;;7.51;100.00
74895;BME280;63447;49.446;8.666;2023-12-29T04:13:42;100273.22;;;7.53;100.00
74895;BME280;63447;49.446;8.666;2023-12-29T04:16:08;100292.91;;;7.55;100.00
74895;BME280;63447;49.446;8.666;2023-12-29T04:18:33;100279.56;;;7.40;100.00
74895;BME280;63447;49.446;8.666;2023-12-29T04:21:01;100281.56;;;7.48;100.00
74895;BME280;63447;49.446;8.666;2023-12-29T04:23:29;100282.06;;;7.50;100.00
74895;BME280;63447;49.446;8.666;2023-12-29T04:25:55;100288.50;;;7.45;100.00
74895;BME280;63447;49.446;8.666;2023-12-29T04:28:21;100284.00;;;7.49;100.00
74895;BME280;63447;49.446;8.666;2023-12-29T04:30:46;100284.44;;;7.43;100.00
74895;BME280;63447;49.446;8.666;2023-12-29T04:33:14;100282.19;;;7.45;100.00
74895;BME280;63447;49.446;8.666;2023-12-29T04:35:44;100290.25;;;7.41;100.00
74895;BME280;63447;49.446;8.666;2023-12-29T04:38:12;100295.00;;;7.49;100.00
74895;BME280;63447;49.446;8.666;2023-12-29T04:40:44;100296.53;;;7.42;100.00
74895;BME280;63447;49.446;8.666;2023-12-29T04:43:11;100299.97;;;7.47;100.00
74895;BME280;63447;49.446;8.666;2023-12-29T04:45:36;100284.00;;;7.49;100.00
74895;BME280;63447;49.446;8.666;2023-12-29T04:48:02;100276.09;;;7.48;100.00
74895;BME280;63447;49.446;8.666;2023-12-29T04:50:33;100270.72;;;7.43;100.00
74895;BME280;63447;49.446;8.666;2023-12-29T04:52:59;100297.16;;;7.61;100.00
74895;BME280;63447;49.446;8.666;2023-12-29T04:55:26;100296.84;;;7.63;100.00
74895;BME280;63447;49.446;8.666;2023-12-29T04:57:54;100275.28;;;7.47;100.00
74895;BME280;63447;49.446;8.666;2023-12-29T05:00:19;100286.28;;;7.56;100.00
74895;BME280;63447;49.446;8.666;2023-12-29T05:02:44;100290.66;;;7.57;100.00
74895;BME280;63447;49.446;8.666;2023-12-29T05:05:10;100273.53;;;7.52;100.00
74895;BME280;63447;49.446;8.666;2023-12-29T05:07:36;100266.91;;;7.53;100.00
74895;BME280;63447;49.446;8.666;2023-12-29T05:10:03;100275.97;;;7.53;100.00
74895;BME280;63447;49.446;8.666;2023-12-29T05:12:29;100272.53;;;7.47;100.00
74895;BME280;63447;49.446;8.666;2023-12-29T05:14:55;100275.78;;;7.49;100.00
74895;BME280;63447;49.446;8.666;2023-12-29T05:17:20;100277.72;;;7.49;100.00
74895;BME280;63447;49.446;8.666;2023-12-29T05:19:46;100271.59;;;7.52;100.00
74895;BME280;63447;49.446;8.666;2023-12-29T05:22:13;100266.56;;;7.54;100.00
74895;BME280;63447;49.446;8.666;2023-12-29T05:24:42;100250.25;;;7.49;100.00
74895;BME280;63447;49.446;8.666;2023-12-29T05:27:08;100255.16;;;7.61;100.00
74895;BME280;63447;49.446;8.666;2023-12-29T05:29:36;100256.75;;;7.53;100.00
74895;BME280;63447;49.446;8.666;2023-12-29T05:32:01;100254.66;;;7.59;100.00
74895;BME280;63447;49.446;8.666;2023-12-29T05:34:29;100256.09;;;7.56;100.00
74895;BME280;63447;49.446;8.666;2023-12-29T05:36:59;100250.44;;;7.53;100.00
74895;BME280;63447;49.446;8.666;2023-12-29T05:39:25;100226.63;;;7.39;100.00
74895;BME280;63447;49.446;8.666;2023-12-29T05:41:50;100258.53;;;7.58;100.00
74895;BME280;63447;49.446;8.666;2023-12-29T05:44:18;100260.44;;;7.57;100.00
74895;BME280;63447;49.446;8.666;2023-12-29T05:46:46;100254.00;;;7.53;100.00
74895;BME280;63447;49.446;8.666;2023-12-29T05:49:12;100227.66;;;7.30;100.00
74895;BME280;63447;49.446;8.666;2023-12-29T05:51:37;100243.38;;;7.38;100.00
74895;BME280;63447;49.446;8.666;2023-12-29T05:54:07;100271.13;;;7.59;100.00
74895;BME280;63447;49.446;8.666;2023-12-29T05:56:32;100281.59;;;7.57;100.00
74895;BME280;63447;49.446;8.666;2023-12-29T05:58:58;100248.06;;;7.37;100.00
74895;BME280;63447;49.446;8.666;2023-12-29T06:01:23;100282.06;;;7.50;100.00
74895;BME280;63447;49.446;8.666;2023-12-29T06:03:49;100293.06;;;7.50;100.00
74895;BME280;63447;49.446;8.666;2023-12-29T06:06:14;100284.94;;;7.45;100.00
74895;BME280;63447;49.446;8.666;2023-12-29T06:08:39;100288.06;;;7.52;100.00
74895;BME280;63447;49.446;8.666;2023-12-29T06:11:05;100282.19;;;7.45;100.00
74895;BME280;63447;49.446;8.666;2023-12-29T06:13:30;100288.38;;;7.51;100.00
74895;BME280;63447;49.446;8.666;2023-12-29T06:15:55;100272.66;;;7.42;100.00
74895;BME280;63447;49.446;8.666;2023-12-29T06:18:24;100248.00;;;7.29;100.00
74895;BME280;63447;49.446;8.666;2023-12-29T06:20:49;100282.56;;;7.52;100.00
74895;BME280;63447;49.446;8.666;2023-12-29T06:23:17;100268.97;;;7.47;100.00
74895;BME280;63447;49.446;8.666;2023-12-29T06:25:42;100288.88;;;7.53;100.00
74895;BME280;63447;49.446;8.666;2023-12-29T06:28:08;100258.06;;;7.33;100.00
74895;BME280;63447;49.446;8.666;2023-12-29T06:30:35;100280.97;;;7.60;100.00
74895;BME280;63447;49.446;8.666;2023-12-29T06:33:01;100279.03;;;7.60;100.00
74895;BME280;63447;49.446;8.666;2023-12-29T06:35:26;100282.91;;;7.59;100.00
74895;BME280;63447;49.446;8.666;2023-12-29T06:37:52;100280.97;;;7.60;100.00
74895;BME280;63447;49.446;8.666;2023-12-29T06:40:17;100285.16;;;7.57;100.00
74895;BME280;63447;49.446;8.666;2023-12-29T06:42:45;100284.34;;;7.57;100.00
74895;BME280;63447;49.446;8.666;2023-12-29T06:45:14;100261.22;;;7.49;100.00
74895;BME280;63447;49.446;8.666;2023-12-29T06:47:39;100279.66;;;7.57;100.00
74895;BME280;63447;49.446;8.666;2023-12-29T06:50:05;100278.25;;;7.60;100.00
74895;BME280;63447;49.446;8.666;2023-12-29T06:52:32;100280.16;;;7.59;100.00
74895;BME280;63447;49.446;8.666;2023-12-29T06:55:00;100212.91;;;7.17;100.00
74895;BME280;63447;49.446;8.666;2023-12-29T06:57:28;100290.53;;;7.62;100.00
74895;BME280;63447;49.446;8.666;2023-12-29T06:59:53;100247.00;;;7.47;100.00
74895;BME280;63447;49.446;8.666;2023-12-29T07:02:18;100276.16;;;7.65;100.00
74895;BME280;63447;49.446;8.666;2023-12-29T07:04:44;100281.84;;;7.69;100.00
74895;BME280;63447;49.446;8.666;2023-12-29T07:07:09;100283.66;;;7.73;100.00
74895;BME280;63447;49.446;8.666;2023-12-29T07:09:38;100257.06;;;7.60;100.00
74895;BME280;63447;49.446;8.666;2023-12-29T07:12:03;100274.13;;;7.71;100.00
74895;BME280;63447;49.446;8.666;2023-12-29T07:14:29;100272.66;;;7.73;100.00
74895;BME280;63447;49.446;8.666;2023-12-29T07:16:54;100260.69;;;7.69;100.00
74895;BME280;63447;49.446;8.666;2023-12-29T07:19:19;100267.19;;;7.73;100.00
74895;BME280;63447;49.446;8.666;2023-12-29T07:21:45;100270.91;;;7.77;100.00
74895;BME280;63447;49.446;8.666;2023-12-29T07:24:13;100275.75;;;7.80;100.00
74895;BME280;63447;49.446;8.666;2023-12-29T07:26:38;100277.22;;;7.78;100.00
74895;BME280;63447;49.446;8.666;2023-12-29T07:29:06;100285.31;;;7.83;100.00
74895;BME280;63447;49.446;8.666;2023-12-29T07:31:32;100277.88;;;7.83;100.00
74895;BME280;63447;49.446;8.666;2023-12-29T07:34:00;100271.88;;;7.81;100.00
74895;BME280;63447;49.446;8.666;2023-12-29T07:36:26;100228.28;;;7.49;100.00
74895;BME280;63447;49.446;8.666;2023-12-29T07:38:51;100263.81;;;7.76;100.00
74895;BME280;63447;49.446;8.666;2023-12-29T07:41:17;100253.13;;;7.75;100.00
74895;BME280;63447;49.446;8.666;2023-12-29T07:43:44;100280.50;;;7.89;100.00
74895;BME280;63447;49.446;8.666;2023-12-29T07:46:10;100284.91;;;7.98;100.00
74895;BME280;63447;49.446;8.666;2023-12-29T07:48:35;100284.59;;;8.00;100.00
74895;BME280;63447;49.446;8.666;2023-12-29T07:51:04;100288.59;;;7.94;100.00
74895;BME280;63447;49.446;8.666;2023-12-29T07:53:30;100264.63;;;7.86;100.00
74895;BME280;63447;49.446;8.666;2023-12-29T07:55:56;100265.44;;;7.86;100.00
74895;BME280;63447;49.446;8.666;2023-12-29T07:58:21;100266.63;;;7.94;100.00
74895;BME280;63447;49.446;8.666;2023-12-29T08:00:49;100281.22;;;8.03;100.00
74895;BME280;63447;49.446;8.666;2023-12-29T08:03:14;100277.16;;;8.00;100.00
74895;BME280;63447;49.446;8.666;2023-12-29T08:05:40;100276.69;;;8.07;100.00
74895;BME280;63447;49.446;8.666;2023-12-29T08:08:08;100292.72;;;8.13;100.00
74895;BME280;63447;49.446;8.666;2023-12-29T08:10:33;100299.66;;;8.11;100.00
74895;BME280;63447;49.446;8.666;2023-12-29T08:12:58;100284.59;;;8.08;100.00
74895;BME280;63447;49.446;8.666;2023-12-29T08:15:26;100288.84;;;8.14;100.00
74895;BME280;63447;49.446;8.666;2023-12-29T08:17:51;100294.56;;;8.27;100.00
74895;BME280;63447;49.446;8.666;2023-12-29T08:20:19;100297.78;;;8.29;100.00
74895;BME280;63447;49.446;8.666;2023-12-29T08:22:46;100282.75;;;8.26;100.00
74895;BME280;63447;49.446;8.666;2023-12-29T08:25:12;100258.44;;;8.11;100.00
74895;BME280;63447;49.446;8.666;2023-12-29T08:27:37;100271.25;;;8.24;100.00
74895;BME280;63447;49.446;8.666;2023-12-29T08:30:03;100293.19;;;8.46;100.00
74895;BME280;63447;49.446;8.666;2023-12-29T08:32:28;100299.84;;;8.54;100.00
74895;BME280;63447;49.446;8.666;2023-12-29T08:34:54;100301.78;;;8.54;100.00
74895;BME280;63447;49.446;8.666;2023-12-29T08:37:19;100267.59;;;8.37;100.00
74895;BME280;63447;49.446;8.666;2023-12-29T08:39:47;100303.44;;;8.72;100.00
74895;BME280;63447;49.446;8.666;2023-12-29T08:42:13;100299.53;;;8.56;100.00
74895;BME280;63447;49.446;8.666;2023-12-29T08:44:39;100320.41;;;8.74;100.00
74895;BME280;63447;49.446;8.666;2023-12-29T08:47:06;100303.56;;;8.67;100.00
74895;BME280;63447;49.446;8.666;2023-12-29T08:49:34;100298.38;;;8.65;100.00
74895;BME280;63447;49.446;8.666;2023-12-29T08:52:00;100300.66;;;8.63;100.00
74895;BME280;63447;49.446;8.666;2023-12-29T08:54:25;100307.94;;;8.68;100.00
74895;BME280;63447;49.446;8.666;2023-12-29T08:56:53;100318.31;;;8.71;100.00
74895;BME280;63447;49.446;8.666;2023-12-29T08:59:18;100315.56;;;8.71;100.00
74895;BME280;63447;49.446;8.666;2023-12-29T09:01:44;100313.44;;;8.68;100.00
74895;BME280;63447;49.446;8.666;2023-12-29T09:04:09;100301.94;;;8.57;100.00
74895;BME280;63447;49.446;8.666;2023-12-29T09:06:37;100305.03;;;8.64;100.00
74895;BME280;63447;49.446;8.666;2023-12-29T09:09:02;100307.81;;;8.81;100.00
74895;BME280;63447;49.446;8.666;2023-12-29T09:11:28;100309.91;;;8.76;100.00
74895;BME280;63447;49.446;8.666;2023-12-29T09:13:55;100303.91;;;8.74;100.00
74895;BME280;63447;49.446;8.666;2023-12-29T09:16:21;100316.06;;;8.90;100.00
74895;BME280;63447;49.446;8.666;2023-12-29T09:18:46;100308.75;;;8.68;100.00
74895;BME280;63447;49.446;8.666;2023-12-29T09:21:12;100294.19;;;8.68;100.00
74895;BME280;63447;49.446;8.666;2023-12-29T09:23:37;100313.78;;;8.75;100.00
74895;BME280;63447;49.446;8.666;2023-12-29T09:26:04;100307.31;;;8.79;100.00
74895;BME280;63447;49.446;8.666;2023-12-29T09:28:32;100310.88;;;8.80;100.00
74895;BME280;63447;49.446;8.666;2023-12-29T09:30:57;100335.66;;;8.89;100.00
74895;BME280;63447;49.446;8.666;2023-12-29T09:33:25;100297.28;;;8.83;100.00
74895;BME280;63447;49.446;8.666;2023-12-29T09:35:51;100290.97;;;8.74;100.00
74895;BME280;63447;49.446;8.666;2023-12-29T09:38:16;100314.75;;;8.88;100.00
74895;BME280;63447;49.446;8.666;2023-12-29T09:40:41;100309.09;;;8.93;100.00
74895;BME280;63447;49.446;8.666;2023-12-29T09:43:12;100307.81;;;8.99;100.00
74895;BME280;63447;49.446;8.666;2023-12-29T09:45:38;100294.22;;;8.94;100.00
74895;BME280;63447;49.446;8.666;2023-12-29T09:48:08;100303.78;;;9.05;100.00
74895;BME280;63447;49.446;8.666;2023-12-29T09:50:37;100298.09;;;9.10;100.00
74895;BME280;63447;49.446;8.666;2023-12-29T09:53:03;100275.31;;;9.09;100.00
74895;BME280;63447;49.446;8.666;2023-12-29T09:55:30;100301.66;;;9.45;100.00
74895;BME280;63447;49.446;8.666;2023-12-29T09:57:58;100308.78;;;9.46;100.00
74895;BME280;63447;49.446;8.666;2023-12-29T10:00:25;100295.81;;;9.46;100.00
74895;BME280;63447;49.446;8.666;2023-12-29T10:02:51;100299.66;;;9.71;100.00
74895;BME280;63447;49.446;8.666;2023-12-29T10:05:20;100283.66;;;9.56;100.00
74895;BME280;63447;49.446;8.666;2023-12-29T10:07:46;100286.84;;;9.84;100.00
74895;BME280;63447;49.446;8.666;2023-12-29T10:10:15;100290.41;;;9.84;100.00
74895;BME280;63447;49.446;8.666;2023-12-29T10:12:47;100286.03;;;9.75;100.00
74895;BME280;63447;49.446;8.666;2023-12-29T10:15:41;100271.78;;;9.73;100.00
74895;BME280;63447;49.446;8.666;2023-12-29T10:24:09;100275.00;;;9.83;100.00
74895;BME280;63447;49.446;8.666;2023-12-29T10:26:39;100273.72;;;9.81;100.00
74895;BME280;63447;49.446;8.666;2023-12-29T10:29:08;100293.63;;;9.86;100.00
74895;BME280;63447;49.446;8.666;2023-12-29T10:31:37;100255.75;;;9.66;100.00
74895;BME280;63447;49.446;8.666;2023-12-29T10:34:20;100273.72;;;9.81;100.00
74895;BME280;63447;49.446;8.666;2023-12-29T10:36:53;100284.56;;;9.77;100.00
74895;BME280;63447;49.446;8.666;2023-12-29T10:39:19;100278.25;;;9.85;100.00
74895;BME280;63447;49.446;8.666;2023-12-29T10:41:44;100277.56;;;9.88;100.00
74895;BME280;63447;49.446;8.666;2023-12-29T10:44:10;100267.16;;;9.94;100.00
74895;BME280;63447;49.446;8.666;2023-12-29T10:46:35;100275.91;;;9.96;100.00
74895;BME280;63447;49.446;8.666;2023-12-29T10:49:12;100273.63;;;9.98;100.00
74895;BME280;63447;49.446;8.666;2023-12-29T10:51:38;100272.97;;;10.01;100.00
74895;BME280;63447;49.446;8.666;2023-12-29T10:54:04;100273.28;;;10.08;100.00
74895;BME280;63447;49.446;8.666;2023-12-29T10:56:32;100271.59;;;10.16;99.79
74895;BME280;63447;49.446;8.666;2023-12-29T10:59:05;100257.69;;;10.12;100.00
74895;BME280;63447;49.446;8.666;2023-12-29T11:01:32;100250.91;;;10.10;99.26
74895;BME280;63447;49.446;8.666;2023-12-29T11:04:02;100231.53;;;10.18;97.96
74895;BME280;63447;49.446;8.666;2023-12-29T11:06:29;100260.06;;;10.31;97.98
74895;BME280;63447;49.446;8.666;2023-12-29T11:08:56;100251.44;;;10.33;97.81
74895;BME280;63447;49.446;8.666;2023-12-29T11:11:22;100249.31;;;10.38;95.85
74895;BME280;63447;49.446;8.666;2023-12-29T11:13:48;100237.59;;;10.41;94.96
74895;BME280;63447;49.446;8.666;2023-12-29T11:16:16;100250.00;;;10.56;92.07
74895;BME280;63447;49.446;8.666;2023-12-29T11:18:43;100248.41;;;10.76;91.11
74895;BME280;63447;49.446;8.666;2023-12-29T11:21:15;100232.13;;;10.83;89.02
74895;BME280;63447;49.446;8.666;2023-12-29T11:23:42;100253.13;;;11.29;89.28
74895;BME280;63447;49.446;8.666;2023-12-29T11:26:12;100241.41;;;11.32;84.85
74895;BME280;63447;49.446;8.666;2023-12-29T11:28:38;100243.19;;;11.49;84.34
74895;BME280;63447;49.446;8.666;2023-12-29T11:31:04;100240.13;;;11.63;83.12
74895;BME280;63447;49.446;8.666;2023-12-29T11:33:41;100220.41;;;11.52;81.41
74895;BME280;63447;49.446;8.666;2023-12-29T11:38:59;100226.91;;;11.68;79.32
74895;BME280;63447;49.446;8.666;2023-12-29T11:43:58;100225.38;;;11.26;85.29
74895;BME280;63447;49.446;8.666;2023-12-29T11:46:36;100231.78;;;11.38;86.24
74895;BME280;63447;49.446;8.666;2023-12-29T11:49:08;100244.59;;;11.55;85.32
74895;BME280;63447;49.446;8.666;2023-12-29T11:51:44;100234.94;;;11.61;83.89
74895;BME280;63447;49.446;8.666;2023-12-29T11:54:24;100229.06;;;11.75;83.14
74895;BME280;63447;49.446;8.666;2023-12-29T11:56:50;100200.78;;;12.02;84.42
74895;BME280;63447;49.446;8.666;2023-12-29T11:59:20;100216.34;;;12.31;79.84
74895;BME280;63447;49.446;8.666;2023-12-29T12:01:57;100205.88;;;11.88;81.90
74895;BME280;63447;49.446;8.666;2023-12-29T12:04:44;100218.88;;;12.24;79.42
74895;BME280;63447;49.446;8.666;2023-12-29T12:09:53;100209.78;;;13.44;69.75
74895;BME280;63447;49.446;8.666;2023-12-29T12:12:40;100201.03;;;14.55;64.82
74895;BME280;63447;49.446;8.666;2023-12-29T12:17:54;100190.00;;;14.59;63.95
74895;BME280;63447;49.446;8.666;2023-12-29T12:20:20;100213.16;;;14.47;63.23
74895;BME280;63447;49.446;8.666;2023-12-29T12:22:49;100209.38;;;14.40;63.43
74895;BME280;63447;49.446;8.666;2023-12-29T12:25:17;100207.13;;;13.63;65.34
74895;BME280;63447;49.446;8.666;2023-12-29T12:27:43;100193.91;;;13.29;67.53
74895;BME280;63447;49.446;8.666;2023-12-29T12:30:09;100190.25;;;13.24;67.50
74895;BME280;63447;49.446;8.666;2023-12-29T12:32:37;100173.78;;;12.76;69.06
74895;BME280;63447;49.446;8.666;2023-12-29T12:35:13;100163.25;;;12.53;70.12
74895;BME280;63447;49.446;8.666;2023-12-29T12:37:39;100191.16;;;12.61;70.54
74895;BME280;63447;49.446;8.666;2023-12-29T12:40:04;100185.69;;;12.24;71.14
74895;BME280;63447;49.446;8.666;2023-12-29T12:42:31;100177.72;;;12.22;71.44
74895;BME280;63447;49.446;8.666;2023-12-29T12:45:04;100191.34;;;12.15;72.47
74895;BME280;63447;49.446;8.666;2023-12-29T12:47:35;100185.59;;;12.08;72.87
74895;BME280;63447;49.446;8.666;2023-12-29T12:50:04;100190.53;;;12.15;73.02
74895;BME280;63447;49.446;8.666;2023-12-29T12:52:32;100187.78;;;12.03;73.22
74895;BME280;63447;49.446;8.666;2023-12-29T12:54:59;100175.00;;;11.86;72.80
74895;BME280;63447;49.446;8.666;2023-12-29T12:57:28;100159.09;;;11.83;73.10
74895;BME280;63447;49.446;8.666;2023-12-29T12:59:55;100189.72;;;12.02;73.59
74895;BME280;63447;49.446;8.666;2023-12-29T13:02:22;100189.16;;;11.84;75.11
74895;BME280;63447;49.446;8.666;2023-12-29T13:04:48;100178.84;;;11.73;76.94
74895;BME280;63447;49.446;8.666;2023-12-29T13:07:19;100195.59;;;11.76;76.45
74895;BME280;63447;49.446;8.666;2023-12-29T13:09:48;100171.03;;;11.75;74.97